Time;durP1;ratioP1;P1;durP2;ratioP2;P2;SDS_P1;SDS_P2;PMS_P1;PMS_P2;Temp;Humidity;BMP_temperature;BMP_pressure;BME280_temperature;BME280_humidity;BME280_pressure;Samples;Min_cycle;Max_cycle;Signal;HPM_P1;HPM_P2
2022/02/20 00:01:40;;;;;;;13.07;3.57;;;;;;;;;;6250172;23;20174;-90
2022/02/20 00:04:54;;;;;;;13.80;4.00;;;;;;;;;;6250867;23;20169;-89
2022/02/20 00:08:01;;;;;;;12.67;2.77;;;;;;;;;;6249677;23;20223;-90
2022/02/20 00:11:07;;;;;;;9.57;2.90;;;;;;;;;;6250720;23;20190;-89
2022/02/20 00:14:14;;;;;;;14.07;3.50;;;;;;;;;;6249454;23;20171;-89
2022/02/20 00:17:21;;;;;;;14.87;4.03;;;;;;;;;;6249888;22;20199;-91
2022/02/20 00:20:30;;;;;;;11.53;3.37;;;;;;;;;;6250474;22;20193;-88
2022/02/20 00:23:38;;;;;;;8.60;3.90;;;;;;;;;;6249686;23;20194;-90
2022/02/20 01:10:52;;;;;;;9.63;3.33;;;;;;;;;;6226665;22;20276;-91
2022/02/20 01:13:58;;;;;;;9.40;3.00;;;;;;;;;;6248791;23;20166;-90
2022/02/20 01:17:03;;;;;;;13.67;3.53;;;;;;;;;;6242054;23;20170;-90
2022/02/20 01:20:10;;;;;;;11.70;3.60;;;;;;;;;;6239547;23;20179;-90
2022/02/20 01:23:16;;;;;;;11.50;3.50;;;;;;;;;;6241162;22;20155;-89
2022/02/20 01:26:22;;;;;;;8.80;3.30;;;;;;;;;;6240856;23;20239;-91
2022/02/20 01:29:27;;;;;;;11.13;3.10;;;;;;;;;;6241157;23;20214;-91
2022/02/20 01:32:32;;;;;;;11.40;3.63;;;;;;;;;;6240677;23;20171;-91
2022/02/20 01:35:37;;;;;;;13.37;3.23;;;;;;;;;;6240697;23;20174;-91
2022/02/20 01:38:46;;;;;;;9.80;2.80;;;;;;;;;;6241299;23;20171;-89
2022/02/20 01:41:55;;;;;;;10.77;2.87;;;;;;;;;;6244303;23;20166;-90
2022/02/20 01:45:00;;;;;;;14.27;3.30;;;;;;;;;;6241489;23;20611;-90
2022/02/20 01:48:08;;;;;;;10.73;3.10;;;;;;;;;;6241265;23;20223;-89
2022/02/20 01:51:15;;;;;;;9.17;2.70;;;;;;;;;;6240611;23;20182;-89
2022/02/20 01:54:21;;;;;;;9.23;2.77;;;;;;;;;;6241747;22;20167;-90
2022/02/20 01:57:31;;;;;;;11.83;3.37;;;;;;;;;;6244367;23;20167;-89
2022/02/20 02:01:07;;;;;;;10.13;3.03;;;;;;;;;;6259418;23;20165;-91
2022/02/20 02:04:32;;;;;;;9.93;2.47;;;;;;;;;;6239370;23;20208;-89
2022/02/20 02:07:45;;;;;;;10.00;2.50;;;;;;;;;;6238253;23;20175;-91
2022/02/20 02:11:13;;;;;;;9.60;2.73;;;;;;;;;;6258276;23;20211;-90
2022/02/20 03:07:00;;;;;;;5.00;1.50;;;;;;;;;;6183893;22;1315182;-90
2022/02/20 03:10:06;;;;;;;5.27;1.30;;;;;;;;;;6112504;23;20264;-90
2022/02/20 03:13:15;;;;;;;7.10;1.43;;;;;;;;;;6127284;23;20169;-90
2022/02/20 03:19:59;;;;;;;6.40;1.57;;;;;;;;;;6127885;23;20234;-91
2022/02/20 03:23:06;;;;;;;2.37;1.10;;;;;;;;;;6129617;23;20172;-90
2022/02/20 03:26:13;;;;;;;2.93;1.10;;;;;;;;;;6126146;23;20172;-88
2022/02/20 03:29:18;;;;;;;5.30;1.60;;;;;;;;;;6119788;23;20757;-91
2022/02/20 03:32:24;;;;;;;8.10;1.20;;;;;;;;;;6121162;23;20197;-89
2022/02/20 03:35:29;;;;;;;4.83;1.27;;;;;;;;;;6120605;23;20166;-91
2022/02/20 03:38:36;;;;;;;4.50;1.40;;;;;;;;;;6121926;23;20166;-92
2022/02/20 03:41:41;;;;;;;7.33;1.30;;;;;;;;;;6121186;23;20228;-89
2022/02/20 03:44:54;;;;;;;5.40;1.40;;;;;;;;;;6119556;23;20173;-91
2022/02/20 03:47:59;;;;;;;8.07;2.40;;;;;;;;;;6120181;23;20172;-90
2022/02/20 03:51:05;;;;;;;3.37;1.40;;;;;;;;;;6118524;23;20173;-89
2022/02/20 03:54:12;;;;;;;5.00;1.20;;;;;;;;;;6121028;23;20230;-91
2022/02/20 03:57:17;;;;;;;4.17;1.60;;;;;;;;;;6120075;23;20193;-90
2022/02/20 04:00:41;;;;;;;3.90;1.30;;;;;;;;;;6134413;23;20170;-91
2022/02/20 04:04:00;;;;;;;3.33;1.30;;;;;;;;;;6118277;23;20182;-89
2022/02/20 04:07:06;;;;;;;4.87;1.30;;;;;;;;;;6116250;23;20173;-90
2022/02/20 04:10:13;;;;;;;8.20;1.43;;;;;;;;;;6118388;23;20850;-90
2022/02/20 04:13:18;;;;;;;7.43;1.47;;;;;;;;;;6118963;23;20192;-90
2022/02/20 04:16:27;;;;;;;10.10;1.30;;;;;;;;;;6114891;23;20194;-90
2022/02/20 04:19:33;;;;;;;6.33;1.30;;;;;;;;;;6118197;23;20153;-89
2022/02/20 04:22:39;;;;;;;6.10;1.50;;;;;;;;;;6137228;23;20625;-89
2022/02/20 04:25:47;;;;;;;5.17;1.60;;;;;;;;;;6117750;23;20184;-91
2022/02/20 04:28:52;;;;;;;4.87;1.63;;;;;;;;;;6120180;23;20174;-89
2022/02/20 04:31:57;;;;;;;6.20;1.47;;;;;;;;;;6118418;23;20240;-89
2022/02/20 04:35:03;;;;;;;3.37;1.20;;;;;;;;;;6118067;23;20177;-91
2022/02/20 04:38:08;;;;;;;5.03;1.60;;;;;;;;;;6117867;23;20164;-90
2022/02/20 04:41:15;;;;;;;4.67;1.30;;;;;;;;;;6118550;23;20186;-89
2022/02/20 04:44:21;;;;;;;5.10;1.73;;;;;;;;;;6118827;23;20222;-90
2022/02/20 04:47:27;;;;;;;6.90;1.53;;;;;;;;;;6120094;23;20165;-88
2022/02/20 04:50:33;;;;;;;4.90;1.47;;;;;;;;;;6118054;23;20177;-91
2022/02/20 04:53:49;;;;;;;3.70;1.50;;;;;;;;;;6117938;23;20184;-90
2022/02/20 04:56:56;;;;;;;6.27;1.40;;;;;;;;;;6118040;23;20276;-88
2022/02/20 05:00:02;;;;;;;5.20;1.03;;;;;;;;;;6119953;23;20501;-90
2022/02/20 05:03:26;;;;;;;6.90;1.87;;;;;;;;;;6120492;23;20201;-90
2022/02/20 05:06:48;;;;;;;5.00;1.40;;;;;;;;;;6121394;23;20177;-89
2022/02/20 05:10:03;;;;;;;6.17;1.50;;;;;;;;;;6120219;23;20188;-89
2022/02/20 05:13:09;;;;;;;5.33;1.50;;;;;;;;;;6119230;23;20173;-89
2022/02/20 05:16:15;;;;;;;6.67;1.50;;;;;;;;;;6121027;23;20320;-90
2022/02/20 05:19:20;;;;;;;3.23;1.30;;;;;;;;;;6119384;23;20289;-90
2022/02/20 05:22:33;;;;;;;3.07;1.10;;;;;;;;;;6119127;23;20512;-88
2022/02/20 05:25:41;;;;;;;2.90;1.00;;;;;;;;;;6120200;23;20173;-89
2022/02/20 05:28:48;;;;;;;3.70;0.90;;;;;;;;;;6119931;23;20240;-90
2022/02/20 05:31:55;;;;;;;4.10;1.47;;;;;;;;;;6119116;23;20213;-89
2022/02/20 05:35:07;;;;;;;9.93;1.30;;;;;;;;;;6119020;23;20257;-89
2022/02/20 05:38:13;;;;;;;4.67;1.67;;;;;;;;;;6120982;23;20223;-89
2022/02/20 05:41:20;;;;;;;5.67;1.30;;;;;;;;;;6119791;23;20176;-88
2022/02/20 05:44:29;;;;;;;7.67;1.83;;;;;;;;;;6119328;23;20181;-89
2022/02/20 05:47:36;;;;;;;3.17;1.03;;;;;;;;;;6117965;23;20181;-90
2022/02/20 05:50:45;;;;;;;2.47;1.03;;;;;;;;;;6118856;23;20173;-91
2022/02/20 05:53:50;;;;;;;1.57;0.80;;;;;;;;;;6118552;23;20176;-90
2022/02/20 05:56:58;;;;;;;5.83;1.10;;;;;;;;;;6119971;23;20217;-89
2022/02/20 06:00:05;;;;;;;3.87;1.23;;;;;;;;;;6119581;23;20180;-89
2022/02/20 06:03:18;;;;;;;3.07;1.07;;;;;;;;;;6118748;23;20173;-89
2022/02/20 06:06:42;;;;;;;5.73;1.20;;;;;;;;;;6134093;23;20229;-89
2022/02/20 06:10:08;;;;;;;1.97;1.07;;;;;;;;;;6100127;23;20217;-90
2022/02/20 06:13:38;;;;;;;2.00;0.93;;;;;;;;;;6090757;23;20174;-89
2022/02/20 06:17:03;;;;;;;8.20;1.50;;;;;;;;;;6108086;23;20221;-89
2022/02/20 06:20:24;;;;;;;4.90;1.00;;;;;;;;;;6091731;23;20154;-89
2022/02/20 06:23:41;;;;;;;2.57;1.07;;;;;;;;;;6090528;23;20170;-89
2022/02/20 06:27:07;;;;;;;5.00;1.10;;;;;;;;;;6091255;23;20213;-89
2022/02/20 06:30:14;;;;;;;3.20;1.10;;;;;;;;;;6090676;23;20169;-89
2022/02/20 06:33:20;;;;;;;4.57;1.40;;;;;;;;;;6091160;23;20177;-89
2022/02/20 06:36:25;;;;;;;2.87;1.10;;;;;;;;;;6088472;23;20194;-90
2022/02/20 06:39:32;;;;;;;4.87;1.27;;;;;;;;;;6087894;23;20202;-90
2022/02/20 06:42:37;;;;;;;3.67;1.17;;;;;;;;;;6090731;23;20248;-90
2022/02/20 06:45:49;;;;;;;2.43;1.00;;;;;;;;;;6088152;23;20290;-90
2022/02/20 06:49:10;;;;;;;7.43;1.37;;;;;;;;;;6090036;23;20170;-88
2022/02/20 06:52:34;;;;;;;1.77;0.90;;;;;;;;;;6106747;23;20224;-90
2022/02/20 06:55:58;;;;;;;6.13;1.30;;;;;;;;;;6108962;23;20509;-90
2022/02/20 06:59:03;;;;;;;4.97;1.13;;;;;;;;;;6091395;23;20254;-90
2022/02/20 07:02:09;;;;;;;2.77;1.00;;;;;;;;;;6090502;23;20259;-90
2022/02/20 07:05:15;;;;;;;7.77;1.50;;;;;;;;;;6091398;23;20595;-89
2022/02/20 07:08:20;;;;;;;6.63;1.10;;;;;;;;;;6092525;23;20556;-90
2022/02/20 07:11:27;;;;;;;2.73;1.07;;;;;;;;;;6092692;23;20169;-90
2022/02/20 07:14:47;;;;;;;4.17;0.97;;;;;;;;;;6091926;23;20161;-89
2022/02/20 07:17:52;;;;;;;2.50;1.17;;;;;;;;;;6093600;23;20221;-90
2022/02/20 07:20:58;;;;;;;2.90;1.10;;;;;;;;;;6092398;23;20178;-90
2022/02/20 07:24:05;;;;;;;7.57;1.27;;;;;;;;;;6094425;23;20226;-90
2022/02/20 07:27:10;;;;;;;8.20;1.30;;;;;;;;;;6094432;23;20245;-91
2022/02/20 07:30:15;;;;;;;4.47;1.10;;;;;;;;;;6091607;23;20237;-90
2022/02/20 07:33:20;;;;;;;6.10;1.30;;;;;;;;;;6093186;23;20169;-90
2022/02/20 07:36:27;;;;;;;5.07;1.20;;;;;;;;;;6091979;23;20214;-90
2022/02/20 07:39:32;;;;;;;4.73;1.20;;;;;;;;;;6094153;23;20173;-90
2022/02/20 07:42:38;;;;;;;3.10;1.20;;;;;;;;;;6092429;23;20177;-90
2022/02/20 07:45:42;;;;;;;4.33;1.10;;;;;;;;;;6091981;23;20265;-90
2022/02/20 07:48:47;;;;;;;4.47;1.20;;;;;;;;;;6092385;23;20158;-89
2022/02/20 07:51:54;;;;;;;4.77;0.93;;;;;;;;;;6093576;23;20253;-90
2022/02/20 07:54:59;;;;;;;4.03;1.10;;;;;;;;;;6091093;23;20270;-90
2022/02/20 07:58:06;;;;;;;7.00;1.03;;;;;;;;;;6094689;23;20189;-90
2022/02/20 08:01:11;;;;;;;3.10;1.13;;;;;;;;;;6093815;23;20182;-91
2022/02/20 08:04:16;;;;;;;5.33;1.10;;;;;;;;;;6093207;23;20170;-90
2022/02/20 08:07:23;;;;;;;3.73;1.20;;;;;;;;;;6100125;23;20200;-89
2022/02/20 08:10:29;;;;;;;4.50;1.20;;;;;;;;;;6120964;23;20293;-89
2022/02/20 08:13:34;;;;;;;3.73;1.70;;;;;;;;;;6120901;23;20193;-89
2022/02/20 08:16:39;;;;;;;6.57;1.47;;;;;;;;;;6121094;23;20172;-89
2022/02/20 08:19:44;;;;;;;3.47;0.93;;;;;;;;;;6119768;23;20225;-89
2022/02/20 08:22:52;;;;;;;4.37;1.00;;;;;;;;;;6120699;23;20193;-89
2022/02/20 08:25:59;;;;;;;6.57;1.20;;;;;;;;;;6118985;23;20177;-90
2022/02/20 08:29:04;;;;;;;3.70;1.67;;;;;;;;;;6121670;23;20168;-90
2022/02/20 08:32:11;;;;;;;3.77;1.30;;;;;;;;;;6120369;23;20180;-88
2022/02/20 08:35:16;;;;;;;5.10;1.10;;;;;;;;;;6121315;23;20169;-90
2022/02/20 08:38:23;;;;;;;4.17;1.10;;;;;;;;;;6122044;23;20219;-89
2022/02/20 08:41:28;;;;;;;6.07;1.93;;;;;;;;;;6118657;23;20189;-91
2022/02/20 08:44:36;;;;;;;4.80;1.27;;;;;;;;;;6117522;23;20180;-90
2022/02/20 08:47:41;;;;;;;2.80;1.20;;;;;;;;;;6118534;23;20173;-89
2022/02/20 08:50:46;;;;;;;4.67;1.20;;;;;;;;;;6119554;23;20612;-91
2022/02/20 08:53:52;;;;;;;3.80;1.33;;;;;;;;;;6119137;23;20173;-90
2022/02/20 08:56:57;;;;;;;2.93;0.90;;;;;;;;;;6119506;23;20168;-90
2022/02/20 09:00:02;;;;;;;3.30;1.10;;;;;;;;;;6118318;23;20177;-89
2022/02/20 09:03:07;;;;;;;3.77;1.00;;;;;;;;;;6120157;23;20173;-90
2022/02/20 09:06:13;;;;;;;4.50;1.50;;;;;;;;;;6119677;23;20222;-91
2022/02/20 09:09:21;;;;;;;4.10;1.40;;;;;;;;;;6119765;23;20225;-91
2022/02/20 09:12:27;;;;;;;4.10;0.83;;;;;;;;;;6121070;23;20173;-90
2022/02/20 09:15:35;;;;;;;4.27;1.20;;;;;;;;;;6119400;23;20505;-89
2022/02/20 09:18:40;;;;;;;6.03;1.13;;;;;;;;;;6122074;23;20200;-90
2022/02/20 09:21:45;;;;;;;2.50;1.07;;;;;;;;;;6121239;23;20522;-88
2022/02/20 09:24:52;;;;;;;7.23;1.20;;;;;;;;;;6118555;23;20173;-90
2022/02/20 09:27:57;;;;;;;3.97;1.23;;;;;;;;;;6118988;23;20177;-88
2022/02/20 09:31:03;;;;;;;4.03;1.10;;;;;;;;;;6118291;23;20177;-91
2022/02/20 09:34:08;;;;;;;3.50;1.27;;;;;;;;;;6120007;23;20173;-90
2022/02/20 09:37:13;;;;;;;7.33;1.23;;;;;;;;;;6118127;23;20483;-89
2022/02/20 09:40:20;;;;;;;3.33;1.20;;;;;;;;;;6118246;23;20177;-89
2022/02/20 09:43:24;;;;;;;4.45;1.10;;;;;;;;;;6121323;23;20297;-88
2022/02/20 09:46:30;;;;;;;3.90;1.35;;;;;;;;;;6119950;23;20180;-88
2022/02/20 09:49:35;;;;;;;3.75;1.52;;;;;;;;;;6137479;23;20180;-89
2022/02/20 09:52:40;;;;;;;6.80;1.93;;;;;;;;;;6120122;23;20181;-90
2022/02/20 09:55:47;;;;;;;4.90;1.23;;;;;;;;;;6119428;23;20166;-90
2022/02/20 09:58:53;;;;;;;5.57;1.25;;;;;;;;;;6119466;23;20244;-90
2022/02/20 10:02:07;;;;;;;4.18;1.00;;;;;;;;;;6117548;23;20193;-89
2022/02/20 10:05:20;;;;;;;5.72;1.50;;;;;;;;;;6119002;23;20177;-89
2022/02/20 10:08:25;;;;;;;7.57;1.40;;;;;;;;;;6107342;23;20193;-90
2022/02/20 10:11:32;;;;;;;6.90;1.20;;;;;;;;;;6107189;23;20174;-89
2022/02/20 10:15:05;;;;;;;5.20;1.25;;;;;;;;;;6107830;23;20174;-88
2022/02/20 10:18:14;;;;;;;4.28;1.33;;;;;;;;;;6107054;23;20269;-90
2022/02/20 10:21:39;;;;;;;3.45;1.10;;;;;;;;;;6107327;23;20170;-87
2022/02/20 10:25:01;;;;;;;4.43;1.15;;;;;;;;;;6107255;23;20173;-88
2022/02/20 10:28:34;;;;;;;2.58;1.13;;;;;;;;;;6106645;23;20210;-88
2022/02/20 10:31:44;;;;;;;3.05;0.98;;;;;;;;;;6108307;23;20228;-88
2022/02/20 10:34:50;;;;;;;3.60;1.05;;;;;;;;;;6109033;23;20158;-88
2022/02/20 10:37:57;;;;;;;2.45;0.82;;;;;;;;;;6109113;23;20249;-88
2022/02/20 10:41:04;;;;;;;3.72;0.88;;;;;;;;;;6110514;23;20173;-89
2022/02/20 10:44:12;;;;;;;5.35;1.30;;;;;;;;;;6108888;23;20229;-88
2022/02/20 10:47:17;;;;;;;4.82;1.10;;;;;;;;;;6107897;23;20698;-90
2022/02/20 10:50:23;;;;;;;1.85;0.70;;;;;;;;;;6108432;23;20170;-90
2022/02/20 10:53:32;;;;;;;3.08;1.00;;;;;;;;;;6107993;23;20182;-90
2022/02/20 10:56:41;;;;;;;6.60;1.20;;;;;;;;;;6110790;23;20626;-91
2022/02/20 10:59:51;;;;;;;6.05;1.05;;;;;;;;;;6111142;23;20170;-91
2022/02/20 11:03:07;;;;;;;4.18;1.10;;;;;;;;;;6112256;23;20606;-91
2022/02/20 11:06:12;;;;;;;3.80;1.35;;;;;;;;;;6111926;23;20170;-90
2022/02/20 11:09:19;;;;;;;7.43;1.38;;;;;;;;;;6113440;23;20172;-90
2022/02/20 11:12:24;;;;;;;2.00;1.30;;;;;;;;;;6110864;23;20238;-91
2022/02/20 11:15:51;;;;;;;4.30;1.60;;;;;;;;;;6110485;23;20267;-90
2022/02/20 11:18:58;;;;;;;4.45;1.20;;;;;;;;;;6111300;23;20533;-90
2022/02/20 11:22:04;;;;;;;3.63;1.40;;;;;;;;;;6120207;23;20209;-91
2022/02/20 11:25:13;;;;;;;1.77;0.80;;;;;;;;;;6120335;23;20215;-90
2022/02/20 11:28:19;;;;;;;2.50;1.20;;;;;;;;;;6119433;23;20169;-90
2022/02/20 11:34:51;;;;;;;3.67;0.80;;;;;;;;;;6120391;23;20156;-91
2022/02/20 11:38:02;;;;;;;5.75;1.33;;;;;;;;;;6122768;23;20242;-90
2022/02/20 11:41:14;;;;;;;2.10;1.10;;;;;;;;;;6119539;23;20170;-90
2022/02/20 11:44:21;;;;;;;3.28;1.02;;;;;;;;;;6119188;23;20153;-91
2022/02/20 11:47:42;;;;;;;3.25;0.77;;;;;;;;;;6119240;23;20208;-90
2022/02/20 11:54:17;;;;;;;4.18;1.30;;;;;;;;;;6118253;23;20170;-90
2022/02/20 12:01:09;;;;;;;3.85;0.95;;;;;;;;;;6117652;23;20174;-92
2022/02/20 12:04:15;;;;;;;2.60;0.95;;;;;;;;;;6119273;23;20268;-90
2022/02/20 12:07:58;;;;;;;4.82;1.00;;;;;;;;;;6124339;23;20197;-90
2022/02/20 12:11:15;;;;;;;5.50;1.17;;;;;;;;;;6133607;23;20221;-91
2022/02/20 12:14:22;;;;;;;5.97;1.30;;;;;;;;;;6132369;23;20201;-89
2022/02/20 12:17:29;;;;;;;5.10;1.27;;;;;;;;;;6149802;23;20221;-89
2022/02/20 12:20:48;;;;;;;1.63;0.82;;;;;;;;;;6133099;23;20174;-89
2022/02/20 12:23:55;;;;;;;2.33;0.98;;;;;;;;;;6132863;23;20261;-89
2022/02/20 12:27:02;;;;;;;6.40;1.00;;;;;;;;;;6131745;23;20174;-89
2022/02/20 12:30:08;;;;;;;2.08;0.90;;;;;;;;;;6132429;23;20189;-90
2022/02/20 12:33:30;;;;;;;3.05;0.80;;;;;;;;;;6130876;23;20225;-91
2022/02/20 12:36:36;;;;;;;5.18;1.10;;;;;;;;;;6132393;23;20477;-91
2022/02/20 12:39:45;;;;;;;3.38;0.90;;;;;;;;;;6132362;23;20214;-91
2022/02/20 12:42:57;;;;;;;4.03;0.85;;;;;;;;;;6132495;23;20221;-90
2022/02/20 12:46:03;;;;;;;3.60;0.90;;;;;;;;;;6131157;23;20173;-89
2022/02/20 12:49:11;;;;;;;1.70;0.80;;;;;;;;;;6115656;23;20170;-89
2022/02/20 12:52:21;;;;;;;5.57;1.00;;;;;;;;;;6132177;23;20174;-89
2022/02/20 12:55:27;;;;;;;2.15;0.70;;;;;;;;;;6133662;23;20239;-90
2022/02/20 13:02:15;;;;;;;6.15;1.13;;;;;;;;;;6131503;23;20172;-90
2022/02/20 13:05:22;;;;;;;2.97;0.82;;;;;;;;;;6131405;23;20173;-91
2022/02/20 13:08:29;;;;;;;2.83;0.85;;;;;;;;;;6119499;23;20221;-91
2022/02/20 13:11:34;;;;;;;4.15;0.70;;;;;;;;;;6118674;23;20190;-92
2022/02/20 13:14:58;;;;;;;2.88;0.90;;;;;;;;;;6119824;23;20174;-90
2022/02/20 13:21:29;;;;;;;3.53;1.35;;;;;;;;;;6119161;23;20174;-90
2022/02/20 13:24:36;;;;;;;2.38;1.05;;;;;;;;;;6118113;23;20178;-89
2022/02/20 13:27:48;;;;;;;3.03;0.80;;;;;;;;;;6118386;23;20158;-89
2022/02/20 13:30:57;;;;;;;2.50;0.90;;;;;;;;;;6118367;23;20175;-90
2022/02/20 13:34:07;;;;;;;2.58;1.00;;;;;;;;;;6118831;23;20232;-90
2022/02/20 13:37:13;;;;;;;2.85;0.88;;;;;;;;;;6119408;23;20193;-91
2022/02/20 13:40:24;;;;;;;3.72;0.75;;;;;;;;;;6118718;23;20626;-90
2022/02/20 13:43:40;;;;;;;3.70;1.02;;;;;;;;;;6118776;23;20170;-91
2022/02/20 13:46:50;;;;;;;4.93;1.13;;;;;;;;;;6119193;23;20170;-90
2022/02/20 13:49:55;;;;;;;3.22;0.70;;;;;;;;;;6118202;23;20170;-89
2022/02/20 13:53:02;;;;;;;3.72;1.13;;;;;;;;;;6117465;23;20173;-90
2022/02/20 13:56:15;;;;;;;2.95;1.08;;;;;;;;;;6116323;23;20174;-89
2022/02/20 13:59:22;;;;;;;3.42;0.90;;;;;;;;;;6114129;23;20198;-90
2022/02/20 14:02:34;;;;;;;2.38;0.70;;;;;;;;;;6118247;23;20162;-89
2022/02/20 14:05:42;;;;;;;2.33;0.90;;;;;;;;;;6114822;23;20179;-91
2022/02/20 14:08:50;;;;;;;3.35;1.30;;;;;;;;;;6117829;23;20590;-90
2022/02/20 14:12:10;;;;;;;3.83;1.02;;;;;;;;;;6118120;23;20198;-92
2022/02/20 14:15:16;;;;;;;3.40;1.70;;;;;;;;;;6118297;23;20173;-89
2022/02/20 14:18:23;;;;;;;2.92;1.42;;;;;;;;;;6117490;23;20222;-92
2022/02/20 14:21:30;;;;;;;2.17;1.17;;;;;;;;;;6118450;23;20190;-87
2022/02/20 14:24:35;;;;;;;4.22;0.93;;;;;;;;;;6117034;23;20207;-88
2022/02/20 14:27:42;;;;;;;1.70;0.88;;;;;;;;;;6117430;23;20161;-90
2022/02/20 14:30:50;;;;;;;3.50;1.05;;;;;;;;;;6118837;23;20169;-90
2022/02/20 14:33:58;;;;;;;6.97;0.90;;;;;;;;;;6118236;23;20170;-90
2022/02/20 14:37:07;;;;;;;5.97;1.08;;;;;;;;;;6119164;23;20662;-91
2022/02/20 14:40:13;;;;;;;3.10;1.00;;;;;;;;;;6118250;23;20213;-89
